createdAt,value
2019-03-02T00:01:55.139Z,16.93
2019-03-02T00:04:25.230Z,15.95
2019-03-02T00:06:54.981Z,19.32
2019-03-02T00:09:24.738Z,15.48
2019-03-02T00:11:56.444Z,16.00
2019-03-02T00:14:25.817Z,18.23
2019-03-02T00:16:55.762Z,15.18
2019-03-02T00:19:25.685Z,15.23
2019-03-02T00:21:55.774Z,11.97
2019-03-02T00:24:28.956Z,20.00
2019-03-02T00:26:58.898Z,17.90
2019-03-02T00:29:28.917Z,20.88
2019-03-02T00:31:59.186Z,16.97
2019-03-02T00:34:32.047Z,18.27
2019-03-02T00:37:02.168Z,20.88
2019-03-02T00:39:32.037Z,13.75
2019-03-02T00:42:01.994Z,23.45
2019-03-02T00:44:31.765Z,13.95
2019-03-02T00:47:01.579Z,13.13
2019-03-02T00:49:31.820Z,16.80
2019-03-02T00:52:01.461Z,23.95
2019-03-02T00:54:31.278Z,15.23
2019-03-02T00:57:01.439Z,16.40
2019-03-02T00:59:30.738Z,14.38
2019-03-02T01:02:04.024Z,13.48
2019-03-02T01:04:32.343Z,26.48
2019-03-02T01:07:02.423Z,17.85
2019-03-02T01:09:32.165Z,13.45
2019-03-02T01:12:01.885Z,12.03
2019-03-02T01:14:32.903Z,14.33
2019-03-02T01:17:02.970Z,14.73
2019-03-02T01:19:32.811Z,16.73
2019-03-02T01:22:02.664Z,18.20
2019-03-02T01:24:35.581Z,21.42
2019-03-02T01:27:04.697Z,13.13
2019-03-02T01:29:35.202Z,13.13
2019-03-02T01:32:05.227Z,14.15
2019-03-02T01:34:35.003Z,19.87
2019-03-02T01:37:08.028Z,11.68
2019-03-02T01:39:36.678Z,11.65
2019-03-02T01:42:06.623Z,16.60
2019-03-02T01:44:36.383Z,16.12
2019-03-02T01:47:06.143Z,13.55
2019-03-02T01:49:36.651Z,13.53
2019-03-02T01:52:06.490Z,13.80
2019-03-02T01:54:36.383Z,15.88
2019-03-02T01:57:06.138Z,11.73
2019-03-02T01:59:38.776Z,13.18
2019-03-02T02:02:07.456Z,11.57
2019-03-02T02:04:37.824Z,12.47
2019-03-02T02:07:14.442Z,13.75
2019-03-02T02:09:44.811Z,13.78
2019-03-02T02:12:29.683Z,15.98
2019-03-02T02:15:05.833Z,11.45
2019-03-02T02:17:36.022Z,14.28
2019-03-02T02:20:07.171Z,12.75
2019-03-02T02:22:37.982Z,13.78
2019-03-02T02:25:21.235Z,9.93
2019-03-02T02:27:54.825Z,16.97
2019-03-02T02:30:26.840Z,12.25
2019-03-02T02:33:04.091Z,12.30
2019-03-02T02:35:41.440Z,10.30
2019-03-02T02:38:16.305Z,20.35
2019-03-02T02:40:44.488Z,12.50
2019-03-02T02:43:20.538Z,11.48
2019-03-02T02:45:49.105Z,12.93
2019-03-02T02:48:19.735Z,10.55
2019-03-02T02:51:10.127Z,10.00
2019-03-02T02:53:40.346Z,10.15
2019-03-02T02:56:09.139Z,10.70
2019-03-02T02:58:39.417Z,14.20
2019-03-02T03:01:09.066Z,12.00
2019-03-02T03:03:38.979Z,13.53
2019-03-02T03:06:08.792Z,16.37
2019-03-02T03:08:45.978Z,16.65
2019-03-02T03:11:16.816Z,14.58
2019-03-02T03:13:46.828Z,15.88
2019-03-02T03:16:17.935Z,13.98
2019-03-02T03:18:52.453Z,17.45
2019-03-02T03:21:27.272Z,19.32
2019-03-02T03:24:10.999Z,16.00
2019-03-02T03:26:40.945Z,17.92
2019-03-02T03:29:11.134Z,20.17
2019-03-02T03:31:41.421Z,19.75
2019-03-02T03:34:11.226Z,19.98
2019-03-02T03:36:43.250Z,20.35
2019-03-02T03:39:13.788Z,28.42
2019-03-02T03:41:44.987Z,21.77
2019-03-02T03:44:17.109Z,22.87
2019-03-02T03:46:50.539Z,22.32
2019-03-02T03:49:20.296Z,24.92
2019-03-02T03:51:56.189Z,21.15
2019-03-02T03:54:28.806Z,21.87
2019-03-02T03:57:02.076Z,20.15
2019-03-02T03:59:32.452Z,22.22
2019-03-02T04:02:26.078Z,22.30
2019-03-02T04:05:06.920Z,21.82
2019-03-02T04:07:31.373Z,20.80
2019-03-02T04:10:02.275Z,24.23
2019-03-02T04:12:31.945Z,22.77
2019-03-02T04:15:03.262Z,22.80
2019-03-02T04:17:39.109Z,20.80
2019-03-02T04:20:16.100Z,21.87
2019-03-02T04:22:49.353Z,21.52
2019-03-02T04:25:19.560Z,21.52
2019-03-02T04:27:54.426Z,21.25
2019-03-02T04:30:21.139Z,23.80
2019-03-02T04:33:05.907Z,26.52
2019-03-02T04:35:36.762Z,26.40
2019-03-02T04:38:16.173Z,23.90
2019-03-02T04:40:46.758Z,25.50
2019-03-02T04:46:15.356Z,22.48
2019-03-02T04:48:41.945Z,24.57
2019-03-02T04:51:22.032Z,26.80
2019-03-02T04:53:58.099Z,21.35
2019-03-02T05:02:56.654Z,24.52
2019-03-02T05:05:36.354Z,30.80
2019-03-02T05:08:27.253Z,25.85
2019-03-02T05:11:00.701Z,22.77
2019-03-02T05:13:30.414Z,27.65
2019-03-02T05:16:15.616Z,23.45
2019-03-02T05:19:13.810Z,20.10
2019-03-02T05:21:44.617Z,24.40
2019-03-02T05:24:15.036Z,22.50
2019-03-02T05:26:56.705Z,19.17
2019-03-02T05:29:30.920Z,24.30
2019-03-02T05:32:04.778Z,23.47
2019-03-02T05:34:39.947Z,22.65
2019-03-02T05:37:12.558Z,23.62
2019-03-02T05:40:00.422Z,26.75
2019-03-02T05:42:33.307Z,25.85
2019-03-02T05:45:05.330Z,21.52
2019-03-02T05:47:35.390Z,30.08
2019-03-02T05:50:06.158Z,26.90
2019-03-02T05:52:38.780Z,21.68
2019-03-02T05:55:10.095Z,23.67
2019-03-02T05:57:40.544Z,24.47
2019-03-02T06:00:13.447Z,25.02
2019-03-02T06:02:43.572Z,22.93
2019-03-02T06:05:20.689Z,25.80
2019-03-02T06:07:57.566Z,31.80
2019-03-02T06:10:27.685Z,32.10
2019-03-02T06:13:00.977Z,40.00
2019-03-02T06:15:33.212Z,37.58
2019-03-02T06:18:07.640Z,40.98
2019-03-02T06:20:37.687Z,50.65
2019-03-02T06:29:10.816Z,45.00
2019-03-02T06:31:40.215Z,43.05
2019-03-02T06:34:09.913Z,49.93
2019-03-02T06:36:40.891Z,43.85
2019-03-02T06:39:11.417Z,56.23
2019-03-02T06:41:40.840Z,55.60
2019-03-02T06:44:10.637Z,57.70
2019-03-02T06:46:40.453Z,57.60
2019-03-02T06:49:10.099Z,60.75
2019-03-02T06:51:39.855Z,66.57
2019-03-02T06:54:12.869Z,63.48
2019-03-02T06:56:40.456Z,68.55
2019-03-02T06:59:10.333Z,66.97
2019-03-02T07:01:40.048Z,74.70
2019-03-02T07:04:10.849Z,68.28
2019-03-02T07:06:43.518Z,83.20
2019-03-02T07:09:12.135Z,67.05
2019-03-02T07:11:42.361Z,66.10
2019-03-02T07:14:12.135Z,69.53
2019-03-02T07:16:41.953Z,75.30
2019-03-02T07:19:28.462Z,59.93
2019-03-02T07:21:58.224Z,75.28
2019-03-02T07:24:29.477Z,71.53
2019-03-02T07:26:59.413Z,71.33
2019-03-02T07:29:29.374Z,80.00
2019-03-02T07:31:59.573Z,66.87
2019-03-02T07:34:29.357Z,74.95
2019-03-02T07:36:59.058Z,75.17
2019-03-02T07:39:32.811Z,68.28
2019-03-02T07:42:00.514Z,68.25
2019-03-02T07:44:30.378Z,58.63
2019-03-02T07:47:00.188Z,76.82
2019-03-02T07:49:30.015Z,67.90
2019-03-02T07:52:00.014Z,58.70
2019-03-02T07:54:29.679Z,74.58
2019-03-02T07:56:59.418Z,67.25
2019-03-02T07:59:29.604Z,65.55
2019-03-02T08:02:00.282Z,74.05
2019-03-02T08:04:30.396Z,53.85
2019-03-02T08:07:01.443Z,61.77
2019-03-02T08:09:31.490Z,66.42
2019-03-02T08:12:01.281Z,66.22
2019-03-02T08:14:31.075Z,59.38
2019-03-02T08:17:01.194Z,61.77
2019-03-02T08:19:30.924Z,68.75
2019-03-02T08:22:00.747Z,64.97
2019-03-02T08:24:30.513Z,65.42
2019-03-02T08:27:00.660Z,68.90
2019-03-02T08:29:30.456Z,60.45
2019-03-02T08:32:00.160Z,76.92
2019-03-02T08:34:30.135Z,63.92
2019-03-02T08:37:00.024Z,78.40
2019-03-02T08:39:29.593Z,68.83
2019-03-02T08:41:59.538Z,65.47
2019-03-02T08:44:29.653Z,72.95
2019-03-02T08:46:59.292Z,65.17
2019-03-02T08:49:29.175Z,78.30
2019-03-02T08:51:58.650Z,75.87
2019-03-02T08:54:28.577Z,75.97
2019-03-02T08:56:58.271Z,76.67
2019-03-02T08:59:27.973Z,85.12
2019-03-02T09:01:58.040Z,82.78
2019-03-02T09:04:27.756Z,87.75
2019-03-02T09:06:57.611Z,86.08
2019-03-02T09:09:27.320Z,93.35
2019-03-02T09:11:57.035Z,95.97
2019-03-02T09:14:26.947Z,99.75
2019-03-02T09:16:58.581Z,97.05
2019-03-02T09:19:28.510Z,106.63
2019-03-02T09:21:58.243Z,102.72
2019-03-02T09:24:28.095Z,97.20
2019-03-02T09:26:57.942Z,106.83
2019-03-02T09:29:27.670Z,98.78
2019-03-02T09:31:57.617Z,107.72
2019-03-02T09:34:27.532Z,107.32
2019-03-02T09:36:57.493Z,95.38
2019-03-02T09:39:27.200Z,104.55
2019-03-02T09:41:58.136Z,108.92
2019-03-02T09:44:28.102Z,101.50
2019-03-02T09:46:57.870Z,90.90
2019-03-02T09:49:27.511Z,99.95
2019-03-02T09:51:57.388Z,86.92
2019-03-02T09:54:27.015Z,83.40
2019-03-02T09:56:56.814Z,80.70
2019-03-02T09:59:26.533Z,97.30
2019-03-02T10:01:56.522Z,83.22
2019-03-02T10:04:26.024Z,85.95
2019-03-02T10:06:57.998Z,84.55
2019-03-02T10:09:27.013Z,91.08
2019-03-02T10:11:57.015Z,79.97
2019-03-02T10:14:27.618Z,79.12
2019-03-02T10:16:57.251Z,86.30
2019-03-02T10:19:28.861Z,88.50
2019-03-02T10:21:59.056Z,83.27
2019-03-02T10:24:28.808Z,79.15
2019-03-02T10:26:58.575Z,78.55
2019-03-02T10:29:28.338Z,81.67
2019-03-02T10:31:58.245Z,79.12
2019-03-02T10:34:27.852Z,74.97
2019-03-02T10:36:57.733Z,65.40
2019-03-02T10:39:29.164Z,72.32
2019-03-02T10:42:00.542Z,70.37
2019-03-02T10:44:30.493Z,75.20
2019-03-02T10:47:00.373Z,71.15
2019-03-02T10:49:29.684Z,85.55
2019-03-02T10:51:59.350Z,82.55
2019-03-02T10:54:31.648Z,76.53
2019-03-02T10:57:01.010Z,71.95
2019-03-02T10:59:30.494Z,60.10
2019-03-02T11:02:00.167Z,76.10
2019-03-02T11:04:52.300Z,83.87
2019-03-02T11:07:39.834Z,76.85
2019-03-02T11:10:18.251Z,87.95
2019-03-02T11:13:15.985Z,76.77
2019-03-02T11:16:00.157Z,66.10
2019-03-02T11:18:40.713Z,62.50
2019-03-02T11:21:34.735Z,63.17
2019-03-02T11:24:30.819Z,58.42
2019-03-02T11:27:21.736Z,67.00
2019-03-02T11:30:09.065Z,70.22
2019-03-02T11:32:57.016Z,54.13
2019-03-02T11:36:04.063Z,60.65
2019-03-02T11:39:02.138Z,63.13
2019-03-02T11:41:51.097Z,59.27
2019-03-02T11:44:39.956Z,54.63
2019-03-02T11:47:27.276Z,49.85
2019-03-02T11:50:04.570Z,57.33
2019-03-02T11:52:57.001Z,47.65
2019-03-02T11:55:45.552Z,50.73
2019-03-02T11:58:35.213Z,41.23
2019-03-02T12:01:29.964Z,49.33
2019-03-02T12:04:16.333Z,48.30
2019-03-02T12:07:22.933Z,44.63
2019-03-02T12:10:14.724Z,45.38
2019-03-02T12:13:05.592Z,46.65
2019-03-02T12:15:45.941Z,44.93
2019-03-02T12:18:26.532Z,40.23
2019-03-02T12:21:17.909Z,41.77
2019-03-02T12:24:14.740Z,39.83
2019-03-02T12:26:56.808Z,45.15
2019-03-02T12:29:49.727Z,36.50
2019-03-02T12:32:40.294Z,35.75
2019-03-02T12:35:27.577Z,37.75
2019-03-02T12:38:22.268Z,38.15
2019-03-02T12:41:01.089Z,40.53
2019-03-02T12:43:58.973Z,42.83
2019-03-02T12:46:47.960Z,41.30
2019-03-02T12:49:44.012Z,40.58
2019-03-02T12:52:23.414Z,37.10
2019-03-02T12:55:06.092Z,38.00
2019-03-02T12:58:01.298Z,35.40
2019-03-02T13:00:56.503Z,31.43
2019-03-02T13:03:41.984Z,39.00
2019-03-02T13:06:20.399Z,37.97
2019-03-02T13:09:17.831Z,37.17
2019-03-02T13:12:02.012Z,47.97
2019-03-02T13:14:53.623Z,34.03
2019-03-02T13:17:37.275Z,34.87
2019-03-02T13:20:15.378Z,34.87
2019-03-02T13:23:15.892Z,52.40
2019-03-02T13:26:07.429Z,30.00
2019-03-02T13:28:41.724Z,32.43
2019-03-02T13:31:43.796Z,35.10
2019-03-02T13:34:21.904Z,31.23
2019-03-02T13:37:03.897Z,31.27
2019-03-02T13:39:39.440Z,64.73
2019-03-02T13:42:24.549Z,30.60
2019-03-02T13:45:19.331Z,38.60
2019-03-02T13:48:00.493Z,36.80
2019-03-02T13:50:40.870Z,41.47
2019-03-02T13:53:28.365Z,38.90
2019-03-02T13:56:09.748Z,28.20
2019-03-02T13:59:01.370Z,32.17
2019-03-02T14:02:08.456Z,33.10
2019-03-02T14:05:04.835Z,28.17
2019-03-02T14:07:53.470Z,26.37
2019-03-02T14:10:42.189Z,35.47
2019-03-02T14:13:46.002Z,40.10
2019-03-02T14:16:35.309Z,34.57
2019-03-02T14:19:24.129Z,32.53
2019-03-02T14:22:05.513Z,29.40
2019-03-02T14:24:53.858Z,30.70
2019-03-02T14:27:41.483Z,31.87
2019-03-02T14:30:21.319Z,34.23
2019-03-02T14:33:15.130Z,35.83
2019-03-02T14:36:09.998Z,34.50
2019-03-02T14:39:01.273Z,34.43
2019-03-02T14:41:55.085Z,34.40
2019-03-02T14:44:41.529Z,39.40
2019-03-02T14:47:36.446Z,42.10
2019-03-02T14:50:12.137Z,32.77
2019-03-02T14:52:58.534Z,38.67
2019-03-02T14:55:53.021Z,39.80
2019-03-02T14:58:44.440Z,35.77
2019-03-02T15:01:36.121Z,33.23
2019-03-02T15:04:16.933Z,40.97
2019-03-02T15:07:04.765Z,35.57
2019-03-02T15:09:49.692Z,31.57
2019-03-02T15:12:36.249Z,35.45
2019-03-02T15:15:36.138Z,33.80
2019-03-02T15:18:37.088Z,33.53
2019-03-02T15:21:27.520Z,34.13
2019-03-02T15:24:16.311Z,44.35
2019-03-02T15:27:04.176Z,32.80
2019-03-02T15:29:51.709Z,37.38
2019-03-02T15:32:41.172Z,49.10
2019-03-02T15:35:44.874Z,57.23
2019-03-02T15:38:29.454Z,37.55
2019-03-02T15:41:18.190Z,41.73
2019-03-02T15:43:59.655Z,31.87
2019-03-02T15:46:55.495Z,25.52
2019-03-02T15:49:41.603Z,23.50
2019-03-02T15:52:20.099Z,26.70
2019-03-02T15:55:17.056Z,25.32
2019-03-02T15:58:10.718Z,17.80
2019-03-02T16:00:56.218Z,16.95
2019-03-02T16:03:44.851Z,24.40
2019-03-02T16:06:23.298Z,22.50
2019-03-02T16:09:04.743Z,18.85
2019-03-02T16:11:56.673Z,24.45
2019-03-02T16:14:36.211Z,26.20
2019-03-02T16:17:29.264Z,22.10
2019-03-02T16:20:18.025Z,30.02
2019-03-02T16:23:11.588Z,25.20
2019-03-02T16:26:03.254Z,34.88
2019-03-02T16:28:38.919Z,30.62
2019-03-02T16:31:16.815Z,25.40
2019-03-02T16:33:58.626Z,29.82
2019-03-02T16:36:41.509Z,21.93
2019-03-02T16:39:29.163Z,33.55
2019-03-02T16:42:35.948Z,36.55
2019-03-02T16:45:38.144Z,45.00
2019-03-02T16:48:18.545Z,34.03
2019-03-02T16:51:17.224Z,37.05
2019-03-02T16:54:09.904Z,29.98
2019-03-02T16:56:48.731Z,39.58
2019-03-02T16:59:46.527Z,53.80
2019-03-02T17:02:38.458Z,51.85
2019-03-02T17:05:31.869Z,45.95
2019-03-02T17:08:25.487Z,55.30
2019-03-02T17:11:06.767Z,66.25
2019-03-02T17:13:53.653Z,57.55
2019-03-02T17:16:54.879Z,64.07
2019-03-02T17:19:45.165Z,63.90
2019-03-02T17:22:32.407Z,54.60
2019-03-02T17:25:21.883Z,46.23
2019-03-02T17:28:31.588Z,58.28
2019-03-02T17:31:20.313Z,58.35
2019-03-02T17:34:16.567Z,48.42
2019-03-02T17:37:20.658Z,56.18
2019-03-02T17:40:26.540Z,51.88
2019-03-02T17:43:32.912Z,40.90
2019-03-02T17:46:18.490Z,51.63
2019-03-02T17:49:13.566Z,54.20
2019-03-02T17:52:09.358Z,53.23
2019-03-02T17:54:51.221Z,44.65
2019-03-02T17:57:42.369Z,49.65
2019-03-02T18:00:23.260Z,48.60
2019-03-02T18:03:30.044Z,48.38
2019-03-02T18:06:20.469Z,44.85
2019-03-02T18:08:55.407Z,39.18
2019-03-02T18:11:50.326Z,43.30
2019-03-02T18:14:32.186Z,41.55
2019-03-02T18:17:19.922Z,33.65
2019-03-02T18:19:49.991Z,28.65
2019-03-02T18:22:20.147Z,33.63
2019-03-02T18:24:50.664Z,27.15
2019-03-02T18:27:20.808Z,27.15
2019-03-02T18:29:50.720Z,36.40
2019-03-02T18:32:21.015Z,33.83
2019-03-02T18:34:50.953Z,29.87
2019-03-02T18:37:21.291Z,32.73
2019-03-02T18:39:51.965Z,32.42
2019-03-02T18:42:27.095Z,35.28
2019-03-02T18:45:02.485Z,40.85
2019-03-02T18:47:33.270Z,38.67
2019-03-02T18:50:12.771Z,45.48
2019-03-02T18:52:48.260Z,47.08
2019-03-02T18:55:22.401Z,42.43
2019-03-02T18:57:52.158Z,45.75
2019-03-02T19:02:26.523Z,52.38
2019-03-02T19:03:24.876Z,51.18
2019-03-02T19:05:55.912Z,53.75
2019-03-02T19:08:26.050Z,52.33
2019-03-02T19:10:59.109Z,52.40
2019-03-02T19:13:29.111Z,56.18
2019-03-02T19:15:59.846Z,65.15
2019-03-02T19:18:30.371Z,56.25
2019-03-02T19:21:00.368Z,54.80
2019-03-02T19:23:40.891Z,59.95
2019-03-02T19:26:12.610Z,54.05
2019-03-02T19:28:43.138Z,57.35
2019-03-02T19:31:14.662Z,58.63
2019-03-02T19:33:46.602Z,43.70
2019-03-02T19:36:18.155Z,50.63
2019-03-02T19:38:49.455Z,55.60
2019-03-02T19:41:19.828Z,48.90
2019-03-02T19:43:49.999Z,52.48
2019-03-02T19:46:20.186Z,51.48
2019-03-02T19:48:50.286Z,53.30
2019-03-02T19:51:19.947Z,57.17
2019-03-02T19:56:31.672Z,51.02
2019-03-02T19:59:01.168Z,58.02
2019-03-02T20:01:34.888Z,42.30
2019-03-02T20:06:51.785Z,48.20
2019-03-02T20:08:24.867Z,45.50
2019-03-02T20:09:22.069Z,46.40
2019-03-02T20:11:52.283Z,42.80
2019-03-02T20:14:22.688Z,35.25
2019-03-02T20:16:57.538Z,36.55
2019-03-02T20:19:35.563Z,35.35
2019-03-02T20:22:05.941Z,38.80
2019-03-02T20:24:39.017Z,35.08
2019-03-02T20:27:12.855Z,33.45
2019-03-02T20:29:43.350Z,31.45
2019-03-02T20:32:15.084Z,33.88
2019-03-02T20:34:45.492Z,30.48
2019-03-02T20:37:17.475Z,38.58
2019-03-02T20:39:48.164Z,38.80
2019-03-02T20:42:18.376Z,33.05
2019-03-02T20:44:48.511Z,30.20
2019-03-02T20:47:20.660Z,32.08
2019-03-02T20:49:51.134Z,26.57
2019-03-02T20:52:21.606Z,17.62
2019-03-02T20:54:52.280Z,21.87
2019-03-02T20:57:22.325Z,32.67
2019-03-02T20:59:53.178Z,20.45
2019-03-02T21:02:23.477Z,28.62
2019-03-02T21:04:57.129Z,16.27
2019-03-02T21:07:29.648Z,18.75
2019-03-02T21:09:59.524Z,11.95
2019-03-02T21:12:29.873Z,10.28
2019-03-02T21:14:59.787Z,15.88
2019-03-02T21:17:30.015Z,13.05
2019-03-02T21:20:00.740Z,14.45
2019-03-02T21:22:30.888Z,10.35
2019-03-02T21:25:00.904Z,18.23
2019-03-02T21:27:31.322Z,13.80
2019-03-02T21:30:01.476Z,11.20
2019-03-02T21:32:32.056Z,7.00
2019-03-02T21:35:03.601Z,11.00
2019-03-02T21:37:34.030Z,8.33
2019-03-02T21:40:05.066Z,10.58
2019-03-02T21:42:35.423Z,12.78
2019-03-02T21:45:06.181Z,6.95
2019-03-02T21:47:36.636Z,10.63
2019-03-02T21:50:12.593Z,8.55
2019-03-02T21:52:51.849Z,13.35
2019-03-02T21:55:22.874Z,8.90
2019-03-02T21:57:53.045Z,11.68
2019-03-02T22:00:25.001Z,12.98
2019-03-02T22:03:01.009Z,7.28
2019-03-02T22:05:34.314Z,11.08
2019-03-02T22:08:04.451Z,12.33
2019-03-02T22:10:44.169Z,18.05
2019-03-02T22:13:14.571Z,12.55
2019-03-02T22:15:44.889Z,7.78
2019-03-02T22:18:15.559Z,11.00
2019-03-02T22:20:45.736Z,14.58
2019-03-02T22:23:28.399Z,14.65
2019-03-02T22:26:09.370Z,12.18
2019-03-02T22:28:39.704Z,13.83
2019-03-02T22:31:10.302Z,11.18
2019-03-02T22:33:40.579Z,11.08
2019-03-02T22:36:11.179Z,20.90
2019-03-02T22:38:42.723Z,12.30
2019-03-02T22:41:14.354Z,9.50
2019-03-02T22:43:45.074Z,13.08
2019-03-02T22:46:15.028Z,19.82
2019-03-02T22:48:45.365Z,12.30
2019-03-02T22:51:18.979Z,8.83
2019-03-02T22:53:51.717Z,13.22
2019-03-02T22:56:22.112Z,15.90
2019-03-02T23:02:07.849Z,18.10
2019-03-02T23:04:38.005Z,23.62
2019-03-02T23:07:08.540Z,18.37
2019-03-02T23:09:38.696Z,15.65
2019-03-02T23:12:18.791Z,12.85
2019-03-02T23:14:50.608Z,22.17
2019-03-02T23:17:20.655Z,20.02
2019-03-02T23:19:51.023Z,16.35
2019-03-02T23:22:27.135Z,16.32
2019-03-02T23:24:57.118Z,11.83
2019-03-02T23:27:27.575Z,17.05
2019-03-02T23:30:07.802Z,13.38
2019-03-02T23:32:40.847Z,21.20
2019-03-02T23:35:11.524Z,17.52
2019-03-02T23:37:42.001Z,15.45
2019-03-02T23:40:12.637Z,17.25
2019-03-02T23:42:43.519Z,16.00
2019-03-02T23:45:17.171Z,17.85
2019-03-02T23:47:56.952Z,19.27
2019-03-02T23:50:48.677Z,12.43
2019-03-02T23:53:29.344Z,24.02
2019-03-02T23:56:01.037Z,27.32
2019-03-02T23:58:37.336Z,10.35
